Time;durP1;ratioP1;P1;durP2;ratioP2;P2;SDS_P1;SDS_P2;PMS_P1;PMS_P2;Temp;Humidity;BMP_temperature;BMP_pressure;BME280_temperature;BME280_humidity;BME280_pressure;Samples;Min_cycle;Max_cycle;Signal;HPM_P1;HPM_P2
2023/03/14 00:02:21;;;;;;;11.80;4.80;;;10.40;1.00;;;;;;5032938;28;20505;-70
2023/03/14 00:04:47;;;;;;;18.77;4.83;;;10.40;1.00;;;;;;5033685;28;20266;-70
2023/03/14 00:07:13;;;;;;;15.70;4.07;;;10.30;1.00;;;;;;5033483;28;20260;-74
2023/03/14 00:09:39;;;;;;;7.37;4.10;;;10.20;1.00;;;;;;5033512;28;20160;-70
2023/03/14 00:12:07;;;;;;;21.60;5.70;;;10.20;5.20;;;;;;5032839;28;20405;-70
2023/03/14 00:14:33;;;;;;;11.37;3.83;;;10.20;9.20;;;;;;5034418;28;20174;-73
2023/03/14 00:16:58;;;;;;;16.83;4.73;;;10.10;10.90;;;;;;5032286;28;20738;-70
2023/03/14 00:19:24;;;;;;;13.30;4.67;;;10.20;15.90;;;;;;5033503;28;20472;-70
2023/03/14 00:21:50;;;;;;;10.40;3.60;;;10.20;18.90;;;;;;5031426;28;20698;-71
2023/03/14 00:24:16;;;;;;;11.77;5.20;;;10.20;18.20;;;;;;5033215;28;20206;-71
2023/03/14 00:26:41;;;;;;;22.40;4.50;;;10.20;21.30;;;;;;5032100;28;20178;-74
2023/03/14 00:29:07;;;;;;;23.33;4.63;;;10.20;23.20;;;;;;5033235;28;20635;-70
2023/03/14 00:31:33;;;;;;;14.03;4.90;;;10.10;28.30;;;;;;5032576;28;20199;-74
2023/03/14 00:33:59;;;;;;;18.70;6.13;;;10.10;32.30;;;;;;5031906;28;20670;-70
2023/03/14 00:36:24;;;;;;;15.50;4.10;;;10.20;34.60;;;;;;5033008;28;20407;-74
2023/03/14 00:38:51;;;;;;;23.37;5.60;;;10.20;36.10;;;;;;5033155;28;20175;-73
2023/03/14 00:41:22;;;;;;;11.63;3.90;;;10.20;37.30;;;;;;5032396;28;20789;-70
2023/03/14 00:43:47;;;;;;;13.87;4.70;;;10.20;39.80;;;;;;5032879;28;20923;-73
2023/03/14 00:46:13;;;;;;;34.37;5.10;;;10.20;39.40;;;;;;5033160;28;20440;-71
2023/03/14 00:48:39;;;;;;;12.60;4.83;;;10.20;40.90;;;;;;5032945;28;20170;-74
2023/03/14 00:51:08;;;;;;;15.90;4.10;;;10.20;42.60;;;;;;5032246;28;20591;-73
2023/03/14 00:53:38;;;;;;;12.07;4.00;;;10.20;45.80;;;;;;5032686;28;20833;-73
2023/03/14 00:56:06;;;;;;;10.80;3.80;;;10.20;47.10;;;;;;5033176;28;20403;-73
2023/03/14 00:58:32;;;;;;;16.93;6.07;;;10.20;44.40;;;;;;5032924;28;20413;-75
2023/03/14 01:00:58;;;;;;;12.80;3.60;;;10.20;44.40;;;;;;5032152;28;20398;-71
2023/03/14 01:03:24;;;;;;;12.20;3.60;;;10.20;42.80;;;;;;5031595;28;20598;-73
2023/03/14 01:05:49;;;;;;;10.17;3.63;;;10.10;44.20;;;;;;5032862;28;20882;-73
2023/03/14 01:08:15;;;;;;;11.13;3.73;;;10.20;45.60;;;;;;5032880;28;20409;-71
2023/03/14 01:10:42;;;;;;;16.53;5.07;;;10.10;44.00;;;;;;5030379;28;20445;-73
2023/03/14 01:13:08;;;;;;;17.13;4.13;;;10.10;47.20;;;;;;5032663;28;20910;-71
2023/03/14 01:15:34;;;;;;;9.27;4.37;;;10.10;46.10;;;;;;5032860;28;20417;-73
2023/03/14 01:18:00;;;;;;;14.00;4.23;;;10.00;42.90;;;;;;5032810;28;20388;-73
2023/03/14 01:20:26;;;;;;;15.23;4.00;;;10.00;48.90;;;;;;5032076;28;20413;-71
2023/03/14 01:22:52;;;;;;;12.93;4.70;;;10.00;50.00;;;;;;5032538;28;20201;-70
2023/03/14 01:25:18;;;;;;;13.67;4.07;;;10.00;50.70;;;;;;5032677;28;20440;-70
2023/03/14 01:27:44;;;;;;;10.83;4.43;;;10.00;53.00;;;;;;5032418;28;20220;-73
2023/03/14 01:30:11;;;;;;;9.87;3.83;;;10.00;51.80;;;;;;5032005;28;20386;-74
2023/03/14 01:32:37;;;;;;;12.20;4.70;;;10.00;53.60;;;;;;5032470;28;20582;-70
2023/03/14 01:35:03;;;;;;;11.63;5.43;;;10.00;54.50;;;;;;5032478;28;20441;-72
2023/03/14 01:37:29;;;;;;;16.67;5.20;;;10.00;56.00;;;;;;5032755;28;20520;-70
2023/03/14 01:39:54;;;;;;;18.87;5.77;;;10.10;55.30;;;;;;5032355;28;20455;-71
2023/03/14 01:42:20;;;;;;;12.80;3.70;;;10.10;54.60;;;;;;5031962;28;20202;-72
2023/03/14 01:44:50;;;;;;;6.33;3.13;;;10.10;59.80;;;;;;5033816;28;20176;-73
2023/03/14 01:47:16;;;;;;;7.33;2.97;;;10.20;59.60;;;;;;5035824;28;20263;-73
2023/03/14 01:49:42;;;;;;;14.23;4.20;;;10.30;55.40;;;;;;5036085;28;20823;-70
2023/03/14 01:52:13;;;;;;;12.40;3.97;;;10.20;54.00;;;;;;5035432;28;20194;-71
2023/03/14 01:54:43;;;;;;;13.63;4.70;;;10.30;55.60;;;;;;5036115;28;20427;-71
2023/03/14 01:57:16;;;;;;;18.50;3.60;;;10.40;59.40;;;;;;5035872;28;20383;-73
2023/03/14 01:59:48;;;;;;;10.90;3.90;;;10.40;59.80;;;;;;5035885;28;20441;-75
2023/03/14 02:02:15;;;;;;;9.70;3.47;;;10.30;60.10;;;;;;5035230;28;20421;-71
2023/03/14 02:04:42;;;;;;;12.87;4.30;;;10.30;57.50;;;;;;5035816;28;20424;-73
2023/03/14 02:07:25;;;;;;;15.13;4.47;;;10.30;60.00;;;;;;5035523;28;20397;-73
2023/03/14 02:09:52;;;;;;;9.43;3.73;;;10.40;58.00;;;;;;5035685;28;20380;-75
2023/03/14 02:12:20;;;;;;;11.50;4.40;;;10.30;55.30;;;;;;5035081;28;20418;-69
2023/03/14 02:14:47;;;;;;;10.60;3.83;;;10.30;58.30;;;;;;5034763;28;20418;-70
2023/03/14 02:17:16;;;;;;;19.07;3.63;;;10.40;58.90;;;;;;5035520;28;20376;-73
2023/03/14 02:20:01;;;;;;;12.50;4.30;;;10.30;55.80;;;;;;5035596;28;20476;-73
2023/03/14 02:22:26;;;;;;;14.40;3.63;;;10.30;59.40;;;;;;5034784;28;20415;-72
2023/03/14 02:25:01;;;;;;;6.83;3.80;;;10.40;59.20;;;;;;5035233;28;20415;-71
2023/03/14 02:27:27;;;;;;;13.57;4.50;;;10.30;59.30;;;;;;5035406;28;20571;-74
2023/03/14 02:30:03;;;;;;;7.07;3.30;;;10.30;61.10;;;;;;5035232;28;20399;-70
2023/03/14 02:32:32;;;;;;;10.13;3.87;;;10.30;61.40;;;;;;5035229;28;20429;-70
2023/03/14 02:35:01;;;;;;;10.00;3.70;;;10.30;61.70;;;;;;5035147;28;20765;-70
2023/03/14 02:37:36;;;;;;;15.43;3.70;;;10.30;60.80;;;;;;5035246;28;20425;-74
2023/03/14 02:40:04;;;;;;;8.83;3.63;;;10.30;62.60;;;;;;5034913;28;20448;-72
2023/03/14 02:42:30;;;;;;;15.83;4.77;;;10.30;63.30;;;;;;5034820;28;20912;-73
2023/03/14 02:45:07;;;;;;;11.53;3.77;;;10.30;64.80;;;;;;5035122;28;20377;-72
2023/03/14 02:47:33;;;;;;;23.00;4.80;;;10.30;65.90;;;;;;5034940;28;20405;-72
2023/03/14 02:50:04;;;;;;;19.10;4.23;;;10.30;68.50;;;;;;5034868;28;20443;-75
2023/03/14 02:52:30;;;;;;;8.47;3.17;;;10.30;69.00;;;;;;5034776;28;20472;-74
2023/03/14 02:54:55;;;;;;;11.63;3.83;;;10.20;71.40;;;;;;5035016;28;20418;-72
2023/03/14 02:57:21;;;;;;;7.73;3.27;;;10.20;71.60;;;;;;5033976;28;20164;-73
2023/03/14 02:59:47;;;;;;;10.20;3.90;;;10.20;75.40;;;;;;5034442;28;20163;-70
2023/03/14 03:02:12;;;;;;;12.93;4.10;;;10.10;76.00;;;;;;5032891;28;20191;-73
2023/03/14 03:04:38;;;;;;;18.90;4.30;;;10.10;81.10;;;;;;5034737;28;20567;-74
2023/03/14 03:07:04;;;;;;;7.93;3.27;;;10.10;84.20;;;;;;5034678;28;20167;-73
2023/03/14 03:09:29;;;;;;;27.23;3.63;;;10.10;92.10;;;;;;5034673;28;20566;-73
2023/03/14 03:11:55;;;;;;;12.67;3.23;;;10.10;92.10;;;;;;5033961;28;20195;-73
2023/03/14 03:14:21;;;;;;;19.20;5.00;;;10.10;92.00;;;;;;5034610;28;20178;-74
2023/03/14 03:16:47;;;;;;;17.40;4.23;;;10.10;92.10;;;;;;5034412;28;20305;-70
2023/03/14 03:19:13;;;;;;;11.70;3.80;;;10.20;92.10;;;;;;5032996;28;20556;-70
2023/03/14 03:21:39;;;;;;;5.90;3.00;;;10.20;92.10;;;;;;5033679;28;20194;-74
2023/03/14 03:24:06;;;;;;;6.20;3.07;;;10.20;92.10;;;;;;5034300;28;20453;-74
2023/03/14 03:26:36;;;;;;;15.00;4.30;;;10.20;92.10;;;;;;5034324;28;20385;-73
2023/03/14 03:29:03;;;;;;;8.47;3.30;;;10.30;92.80;;;;;;5034272;28;20412;-70
2023/03/14 03:31:29;;;;;;;8.20;3.40;;;10.30;95.60;;;;;;5032354;28;20500;-74
2023/03/14 03:33:54;;;;;;;16.60;4.67;;;10.40;97.20;;;;;;5033848;28;20380;-73
2023/03/14 03:36:25;;;;;;;7.80;4.03;;;10.40;97.60;;;;;;5034231;28;20173;-73
2023/03/14 03:38:51;;;;;;;14.87;4.47;;;10.40;99.00;;;;;;5034164;28;20173;-71
2023/03/14 03:41:16;;;;;;;9.37;5.23;;;10.40;99.80;;;;;;5033314;28;20753;-74
2023/03/14 03:43:42;;;;;;;9.63;3.90;;;10.50;99.90;;;;;;5033732;28;20202;-70
2023/03/14 03:46:08;;;;;;;11.80;4.00;;;10.50;99.90;;;;;;5033921;28;20186;-73
2023/03/14 03:48:35;;;;;;;6.10;3.80;;;10.60;99.90;;;;;;5033881;28;20167;-70
2023/03/14 03:51:01;;;;;;;18.13;3.73;;;10.60;99.90;;;;;;5033104;28;20174;-75
2023/03/14 03:53:27;;;;;;;4.00;3.50;;;10.50;99.90;;;;;;5032343;28;20787;-70
2023/03/14 03:55:53;;;;;;;9.17;3.80;;;10.60;99.90;;;;;;5033682;28;20385;-71
2023/03/14 03:58:19;;;;;;;10.70;4.37;;;10.60;99.90;;;;;;5033708;28;20395;-73
2023/03/14 04:00:44;;;;;;;6.83;4.13;;;10.60;99.90;;;;;;5031888;28;20167;-69
2023/03/14 04:03:10;;;;;;;13.13;4.43;;;10.50;99.90;;;;;;5033503;28;20454;-69
2023/03/14 04:05:36;;;;;;;10.00;4.00;;;10.40;99.90;;;;;;5033549;28;20167;-70
2023/03/14 04:08:02;;;;;;;11.13;5.70;;;10.30;99.90;;;;;;5033230;28;20213;-71
2023/03/14 04:10:28;;;;;;;7.90;5.10;;;10.30;99.90;;;;;;5032693;28;20225;-69
2023/03/14 04:12:54;;;;;;;6.87;5.67;;;10.20;99.90;;;;;;5032110;28;20445;-70
2023/03/14 04:15:20;;;;;;;15.70;6.20;;;10.20;99.90;;;;;;5033498;28;20883;-73
2023/03/14 04:17:45;;;;;;;13.70;6.37;;;10.20;99.90;;;;;;5033331;28;20182;-70
2023/03/14 04:20:11;;;;;;;13.33;6.80;;;10.20;99.90;;;;;;5032699;28;20175;-75
2023/03/14 04:22:38;;;;;;;8.50;5.70;;;10.20;1.00;;;;;;5033192;28;20686;-69
2023/03/14 04:25:04;;;;;;;9.53;5.80;;;10.20;1.00;;;;;;5033250;28;20853;-71
2023/03/14 04:27:30;;;;;;;9.70;6.03;;;10.10;1.00;;;;;;5033225;28;20424;-71
2023/03/14 04:29:56;;;;;;;13.67;5.47;;;10.00;1.00;;;;;;5031795;28;20445;-74
2023/03/14 04:32:21;;;;;;;7.20;5.90;;;10.00;1.00;;;;;;5032568;28;20579;-70
2023/03/14 04:34:47;;;;;;;9.10;6.50;;;10.00;1.00;;;;;;5032287;28;20180;-69
2023/03/14 04:37:13;;;;;;;6.03;5.50;;;9.90;1.00;;;;;;5032212;28;20249;-69
2023/03/14 04:39:39;;;;;;;10.00;5.60;;;9.80;1.00;;;;;;5033162;28;20256;-69
2023/03/14 04:42:04;;;;;;;5.43;4.97;;;9.80;1.00;;;;;;5032094;28;20226;-70
2023/03/14 04:44:30;;;;;;;9.43;5.70;;;9.80;1.00;;;;;;5032858;28;20208;-69
2023/03/14 04:46:56;;;;;;;6.60;4.80;;;9.80;1.00;;;;;;5031514;28;20178;-69
2023/03/14 04:49:21;;;;;;;11.37;5.13;;;9.80;1.00;;;;;;5032063;28;20546;-68
2023/03/14 04:51:47;;;;;;;7.47;5.47;;;9.70;1.00;;;;;;5030996;28;20189;-67
2023/03/14 04:54:13;;;;;;;7.03;5.40;;;9.70;1.00;;;;;;5033004;28;20404;-68
2023/03/14 04:56:39;;;;;;;8.70;5.73;;;9.60;1.00;;;;;;5032825;28;20168;-68
2023/03/14 04:59:05;;;;;;;7.60;4.50;;;9.60;1.00;;;;;;5031615;28;20194;-68
2023/03/14 05:01:30;;;;;;;6.43;4.03;;;9.50;1.00;;;;;;5031021;28;20725;-68
2023/03/14 05:03:56;;;;;;;11.30;5.00;;;9.50;1.00;;;;;;5032648;28;20457;-66
2023/03/14 05:06:22;;;;;;;4.97;3.70;;;9.40;8.40;;;;;;5032827;28;20622;-68
2023/03/14 05:08:47;;;;;;;4.00;3.53;;;9.40;23.90;;;;;;5032863;28;20166;-68
2023/03/14 05:11:13;;;;;;;5.50;4.10;;;9.30;32.30;;;;;;5032041;28;20192;-66
2023/03/14 05:13:40;;;;;;;6.90;4.70;;;9.30;49.20;;;;;;5032828;28;20180;-66
2023/03/14 05:16:10;;;;;;;7.73;4.60;;;9.30;62.70;;;;;;5031585;28;20168;-65
2023/03/14 05:18:37;;;;;;;11.60;4.60;;;9.20;76.10;;;;;;5031670;28;20983;-67
2023/03/14 05:21:03;;;;;;;8.73;4.70;;;9.20;80.60;;;;;;5034314;28;20434;-66
2023/03/14 05:23:29;;;;;;;3.90;3.60;;;9.20;90.80;;;;;;5036381;28;20449;-67
2023/03/14 05:25:55;;;;;;;4.77;4.47;;;9.10;94.60;;;;;;5036535;28;20549;-67
2023/03/14 05:28:21;;;;;;;7.93;3.07;;;9.10;99.90;;;;;;5036514;28;20797;-67
2023/03/14 05:30:47;;;;;;;13.00;4.43;;;9.00;98.90;;;;;;5035711;28;20437;-67
2023/03/14 05:33:13;;;;;;;2.70;2.50;;;9.00;99.90;;;;;;5036384;28;20200;-67
2023/03/14 05:35:40;;;;;;;5.63;3.30;;;8.90;99.90;;;;;;5035303;28;20556;-66
2023/03/14 05:38:05;;;;;;;4.23;2.90;;;8.90;99.90;;;;;;5036412;28;20407;-65
2023/03/14 05:40:31;;;;;;;2.57;2.40;;;8.90;99.90;;;;;;5035588;28;20407;-65
2023/03/14 05:42:57;;;;;;;5.00;3.93;;;8.80;99.90;;;;;;5034562;28;20224;-66
2023/03/14 05:45:22;;;;;;;6.30;3.13;;;8.80;99.90;;;;;;5036342;28;20540;-67
2023/03/14 05:47:48;;;;;;;4.70;3.53;;;8.70;99.90;;;;;;5036236;28;20169;-67
2023/03/14 05:50:14;;;;;;;3.20;2.50;;;8.70;99.90;;;;;;5034204;28;20215;-67
2023/03/14 05:52:39;;;;;;;4.20;2.60;;;8.70;99.90;;;;;;5036042;28;20192;-65
2023/03/14 05:55:05;;;;;;;3.53;2.67;;;8.60;99.90;;;;;;5034571;28;20177;-66
2023/03/14 05:57:31;;;;;;;7.00;2.53;;;8.60;99.90;;;;;;5036118;28;20192;-67
2023/03/14 05:59:57;;;;;;;3.70;2.80;;;8.60;99.90;;;;;;5035710;28;20940;-66
2023/03/14 06:02:22;;;;;;;6.60;2.10;;;8.50;99.90;;;;;;5034024;28;20196;-66
2023/03/14 06:04:48;;;;;;;2.70;2.50;;;8.50;99.90;;;;;;5035799;28;20203;-67
2023/03/14 06:07:14;;;;;;;5.33;2.67;;;8.50;99.90;;;;;;5035628;28;20199;-67
2023/03/14 06:09:40;;;;;;;5.27;2.83;;;8.40;99.90;;;;;;5035687;28;20178;-66
2023/03/14 06:12:06;;;;;;;4.33;2.80;;;8.40;99.90;;;;;;5035010;28;20506;-67
2023/03/14 06:14:32;;;;;;;5.43;3.43;;;8.50;99.90;;;;;;5035682;28;20238;-65
2023/03/14 06:16:58;;;;;;;2.77;2.50;;;8.50;99.90;;;;;;5035592;28;20920;-67
2023/03/14 06:19:25;;;;;;;12.43;3.90;;;8.50;99.90;;;;;;5035602;28;20175;-68
2023/03/14 06:21:51;;;;;;;3.80;3.20;;;8.50;99.90;;;;;;5034503;28;20557;-67
2023/03/14 06:24:17;;;;;;;2.87;2.60;;;8.50;99.90;;;;;;5035331;28;20450;-66
2023/03/14 06:26:43;;;;;;;4.00;3.47;;;8.60;99.90;;;;;;5035615;28;20899;-67
2023/03/14 06:29:09;;;;;;;8.97;3.43;;;8.70;99.90;;;;;;5035339;28;20391;-69
2023/03/14 06:31:35;;;;;;;12.63;3.80;;;8.70;99.90;;;;;;5034551;28;20250;-68
2023/03/14 06:34:01;;;;;;;8.70;3.73;;;8.80;99.90;;;;;;5035436;28;20802;-67
2023/03/14 06:36:26;;;;;;;5.70;3.87;;;8.90;99.90;;;;;;5035307;28;20167;-66
2023/03/14 06:38:52;;;;;;;4.97;3.93;;;8.90;99.90;;;;;;5034929;28;20168;-67
2023/03/14 06:41:18;;;;;;;10.80;3.97;;;9.00;99.90;;;;;;5034395;28;20283;-69
2023/03/14 06:43:44;;;;;;;10.57;5.50;;;9.00;99.90;;;;;;5034876;28;20222;-68
2023/03/14 06:46:09;;;;;;;7.37;4.17;;;9.10;99.90;;;;;;5035215;28;20175;-67
2023/03/14 06:48:35;;;;;;;9.93;4.50;;;9.10;99.90;;;;;;5034205;28;20173;-67
2023/03/14 06:51:01;;;;;;;6.70;4.13;;;9.20;99.90;;;;;;5034172;28;20220;-68
2023/03/14 06:53:27;;;;;;;10.30;4.60;;;9.20;99.90;;;;;;5034872;28;20199;-68
2023/03/14 06:55:52;;;;;;;4.30;3.83;;;9.20;99.90;;;;;;5034578;28;20256;-67
2023/03/14 06:58:18;;;;;;;6.23;4.27;;;9.30;99.90;;;;;;5034829;28;20173;-67
2023/03/14 07:00:44;;;;;;;8.50;4.03;;;9.20;99.90;;;;;;5034200;28;20235;-67
2023/03/14 07:03:10;;;;;;;5.73;4.20;;;9.30;99.90;;;;;;5033382;28;20199;-67
2023/03/14 07:05:36;;;;;;;6.13;3.70;;;9.30;99.90;;;;;;5033355;28;20290;-68
2023/03/14 07:08:02;;;;;;;6.47;4.57;;;9.30;99.90;;;;;;5034737;28;20484;-67
2023/03/14 07:10:27;;;;;;;5.10;4.20;;;9.30;99.90;;;;;;5032943;28;20719;-68
2023/03/14 07:12:53;;;;;;;7.60;3.33;;;9.30;99.90;;;;;;5033325;28;20202;-68
2023/03/14 07:15:19;;;;;;;9.87;4.57;;;9.40;99.90;;;;;;5034364;28;20227;-67
2023/03/14 07:17:47;;;;;;;6.03;4.70;;;9.40;99.90;;;;;;5034353;28;20485;-68
2023/03/14 07:20:13;;;;;;;4.00;3.70;;;9.40;99.90;;;;;;5033812;28;20498;-69
2023/03/14 07:22:39;;;;;;;6.13;3.73;;;9.40;99.90;;;;;;5034261;28;20469;-68
2023/03/14 07:25:05;;;;;;;5.03;3.27;;;9.40;99.90;;;;;;5034368;28;20402;-68
2023/03/14 07:27:31;;;;;;;10.43;4.80;;;9.40;99.90;;;;;;5033132;28;20950;-68
2023/03/14 07:29:57;;;;;;;13.77;4.10;;;9.50;99.90;;;;;;5032763;28;20405;-68
2023/03/14 07:32:22;;;;;;;5.77;3.70;;;9.40;99.90;;;;;;5032082;28;20277;-69
2023/03/14 07:34:48;;;;;;;9.50;4.63;;;9.50;99.90;;;;;;5034277;28;20171;-69
2023/03/14 07:37:14;;;;;;;6.57;4.07;;;9.50;99.90;;;;;;5034191;28;20802;-68
2023/03/14 07:39:39;;;;;;;4.20;3.53;;;9.50;99.90;;;;;;5033006;28;20264;-69
2023/03/14 07:42:05;;;;;;;6.20;3.50;;;9.60;99.90;;;;;;5031812;28;20651;-70
2023/03/14 07:44:31;;;;;;;4.63;3.90;;;9.70;99.90;;;;;;5033906;28;20209;-68
2023/03/14 07:46:57;;;;;;;4.40;4.00;;;9.70;99.90;;;;;;5034003;28;20160;-70
2023/03/14 07:49:22;;;;;;;7.77;3.17;;;9.80;99.90;;;;;;5033766;28;20172;-69
2023/03/14 07:51:48;;;;;;;7.50;3.83;;;9.70;99.90;;;;;;5032941;28;20210;-70
2023/03/14 07:54:14;;;;;;;6.70;4.73;;;9.70;99.90;;;;;;5032615;28;20590;-70
2023/03/14 07:56:40;;;;;;;9.47;4.67;;;9.70;99.90;;;;;;5032814;28;20180;-68
2023/03/14 07:59:06;;;;;;;5.43;4.40;;;9.70;99.90;;;;;;5033780;28;20421;-70
2023/03/14 08:01:32;;;;;;;4.97;3.93;;;9.70;99.90;;;;;;5033126;28;20202;-71
2023/03/14 08:03:58;;;;;;;5.03;3.70;;;9.60;99.90;;;;;;5033531;28;20474;-68
2023/03/14 08:06:24;;;;;;;5.37;3.50;;;9.70;99.90;;;;;;5032039;28;20209;-71
2023/03/14 08:08:50;;;;;;;6.80;4.07;;;9.70;99.90;;;;;;5033679;28;20421;-71
2023/03/14 08:11:16;;;;;;;3.03;2.70;;;9.70;99.90;;;;;;5031856;28;20454;-72
2023/03/14 08:13:42;;;;;;;3.23;3.03;;;9.70;99.90;;;;;;5032709;28;20228;-71
2023/03/14 08:16:08;;;;;;;7.20;3.93;;;9.70;99.90;;;;;;5033517;28;20368;-70
2023/03/14 08:18:34;;;;;;;5.00;3.47;;;9.70;99.90;;;;;;5033432;28;20177;-71
2023/03/14 08:20:59;;;;;;;4.73;3.47;;;9.70;99.90;;;;;;5032627;28;20861;-72
2023/03/14 08:23:25;;;;;;;5.73;3.50;;;9.70;99.90;;;;;;5033286;28;20194;-68
2023/03/14 08:25:51;;;;;;;4.10;3.40;;;9.70;99.90;;;;;;5032823;28;20419;-68
2023/03/14 08:28:18;;;;;;;4.73;4.10;;;9.70;99.90;;;;;;5033208;28;20233;-71
2023/03/14 08:30:44;;;;;;;3.83;3.33;;;9.70;99.90;;;;;;5032779;28;20452;-67
2023/03/14 08:33:10;;;;;;;3.77;3.10;;;9.70;99.90;;;;;;5033120;28;20448;-67
2023/03/14 08:35:37;;;;;;;3.50;3.23;;;9.70;99.90;;;;;;5033163;28;20418;-71
2023/03/14 08:38:03;;;;;;;5.50;3.10;;;9.60;99.90;;;;;;5033287;28;20409;-70
2023/03/14 08:40:29;;;;;;;7.30;2.97;;;9.60;99.90;;;;;;5032387;28;20488;-69
2023/03/14 08:42:54;;;;;;;3.63;3.40;;;9.50;99.90;;;;;;5032501;28;20671;-68
2023/03/14 08:45:21;;;;;;;6.53;3.37;;;9.40;99.90;;;;;;5033179;28;20645;-69
2023/03/14 08:47:47;;;;;;;10.33;4.03;;;9.40;99.90;;;;;;5033033;28;20213;-68
2023/03/14 08:50:13;;;;;;;7.77;3.20;;;9.30;99.90;;;;;;5032311;28;20388;-67
2023/03/14 08:52:40;;;;;;;3.37;3.07;;;9.40;99.90;;;;;;5032928;28;20427;-67
2023/03/14 08:55:08;;;;;;;3.40;2.50;;;9.30;99.90;;;;;;5034923;28;20395;-68
2023/03/14 08:57:34;;;;;;;3.40;2.33;;;9.20;99.90;;;;;;5035837;28;20410;-69
2023/03/14 08:59:59;;;;;;;4.63;2.10;;;9.00;99.90;;;;;;5036832;28;20759;-69
2023/03/14 09:02:26;;;;;;;3.20;2.10;;;8.90;99.90;;;;;;5034980;28;20676;-68
2023/03/14 09:04:52;;;;;;;1.83;1.73;;;8.60;99.90;;;;;;5036935;28;20275;-68
2023/03/14 09:07:18;;;;;;;2.23;2.03;;;8.00;99.90;;;;;;5035971;28;20414;-68
2023/03/14 09:09:44;;;;;;;2.67;1.87;;;7.70;99.90;;;;;;5035870;28;20402;-67
2023/03/14 09:12:10;;;;;;;1.63;1.53;;;7.60;99.90;;;;;;5036254;28;20443;-67
2023/03/14 09:14:36;;;;;;;2.17;1.97;;;7.50;99.90;;;;;;5036787;28;20428;-67
2023/03/14 09:17:03;;;;;;;1.63;1.40;;;7.30;99.90;;;;;;5036746;28;20577;-67
2023/03/14 09:19:29;;;;;;;1.80;1.70;;;6.90;99.90;;;;;;5036611;28;20695;-68
2023/03/14 09:21:55;;;;;;;3.30;2.00;;;6.30;99.90;;;;;;5034642;28;20517;-67
2023/03/14 09:24:20;;;;;;;3.80;2.20;;;5.70;99.90;;;;;;5035446;28;20564;-68
2023/03/14 09:26:46;;;;;;;2.60;2.20;;;5.40;99.90;;;;;;5036665;28;20165;-68
2023/03/14 09:29:12;;;;;;;2.03;1.93;;;5.20;99.90;;;;;;5036242;28;20624;-68
2023/03/14 09:31:38;;;;;;;2.83;2.63;;;5.30;99.90;;;;;;5035770;28;20177;-67
2023/03/14 09:34:03;;;;;;;1.97;1.87;;;5.20;99.90;;;;;;5033325;28;20171;-67
2023/03/14 09:36:29;;;;;;;1.90;1.80;;;5.00;99.90;;;;;;5016483;28;20172;-68
2023/03/14 09:38:55;;;;;;;1.90;1.80;;;4.80;99.90;;;;;;5016199;28;20173;-67
2023/03/14 09:41:26;;;;;;;3.33;2.03;;;4.70;99.90;;;;;;5035547;28;20497;-68
2023/03/14 09:44:02;;;;;;;2.17;1.60;;;4.70;99.90;;;;;;5036197;28;20285;-69
2023/03/14 09:46:31;;;;;;;2.40;2.20;;;4.50;99.90;;;;;;5034643;28;20483;-67
2023/03/14 09:48:57;;;;;;;2.63;2.30;;;4.30;99.90;;;;;;5034401;28;20413;-68
2023/03/14 09:51:23;;;;;;;3.20;3.00;;;4.20;99.90;;;;;;5035717;28;20815;-67
2023/03/14 09:53:50;;;;;;;2.37;2.17;;;4.00;99.90;;;;;;5036084;28;20247;-68
2023/03/14 09:56:32;;;;;;;2.23;2.07;;;3.90;99.90;;;;;;5035406;28;20410;-68
2023/03/14 09:59:05;;;;;;;3.97;1.70;;;4.00;99.90;;;;;;5034856;28;20771;-68
2023/03/14 10:01:33;;;;;;;3.27;2.67;;;4.00;99.90;;;;;;5035335;28;20469;-67
2023/03/14 10:04:09;;;;;;;2.50;1.80;;;4.00;99.90;;;;;;5035852;28;20446;-67
2023/03/14 10:06:35;;;;;;;2.03;1.93;;;3.90;99.90;;;;;;5034215;28;20957;-67
2023/03/14 10:09:02;;;;;;;3.17;2.00;;;3.90;99.90;;;;;;5035766;28;20402;-67
2023/03/14 10:11:28;;;;;;;4.13;1.97;;;3.80;99.90;;;;;;5035148;28;20218;-67
2023/03/14 10:14:13;;;;;;;3.40;2.37;;;3.80;99.90;;;;;;5035137;28;20437;-67
2023/03/14 10:16:46;;;;;;;2.23;2.03;;;3.90;99.90;;;;;;5035750;28;20171;-67
2023/03/14 10:19:17;;;;;;;3.23;2.67;;;3.90;99.90;;;;;;5034317;28;20461;-68
2023/03/14 10:21:44;;;;;;;3.00;2.37;;;3.90;99.90;;;;;;5034826;28;20426;-67
2023/03/14 10:24:19;;;;;;;2.07;1.87;;;4.00;99.90;;;;;;5035651;28;20958;-67
2023/03/14 10:27:08;;;;;;;1.90;1.80;;;4.00;99.90;;;;;;5034199;28;20405;-67
2023/03/14 10:29:50;;;;;;;1.73;1.63;;;4.10;99.90;;;;;;5034244;28;20858;-67
2023/03/14 10:32:20;;;;;;;2.30;2.10;;;4.20;99.90;;;;;;5034687;28;20468;-68
2023/03/14 10:35:08;;;;;;;1.97;1.87;;;4.40;99.90;;;;;;5035434;28;20540;-67
2023/03/14 10:37:34;;;;;;;2.00;1.90;;;4.50;99.90;;;;;;5035206;28;20414;-68
2023/03/14 10:40:05;;;;;;;2.80;2.07;;;4.60;99.90;;;;;;5035039;28;20407;-67
2023/03/14 10:42:34;;;;;;;1.70;1.60;;;4.50;99.90;;;;;;5034809;28;20951;-67
2023/03/14 10:45:28;;;;;;;4.50;2.13;;;4.50;99.90;;;;;;5033840;28;20967;-67
2023/03/14 10:47:54;;;;;;;2.47;2.00;;;4.50;99.90;;;;;;5034985;28;20414;-67
2023/03/14 10:50:30;;;;;;;5.40;2.40;;;4.60;99.90;;;;;;5033933;28;20868;-66
2023/03/14 10:52:57;;;;;;;6.10;2.20;;;4.70;99.90;;;;;;5034922;28;20786;-66
2023/03/14 10:55:25;;;;;;;2.37;2.13;;;4.80;99.90;;;;;;5033556;28;20445;-66
2023/03/14 10:57:51;;;;;;;5.63;2.50;;;5.00;99.90;;;;;;5034890;28;20433;-67
2023/03/14 11:00:23;;;;;;;4.90;1.83;;;5.00;99.90;;;;;;5034291;28;20441;-67
2023/03/14 11:03:03;;;;;;;3.17;1.97;;;5.20;99.90;;;;;;5034652;28;20191;-67
2023/03/14 11:05:48;;;;;;;2.40;2.13;;;5.10;99.90;;;;;;5034701;28;20410;-67
2023/03/14 11:08:51;;;;;;;6.17;2.97;;;5.20;99.90;;;;;;5034207;28;20475;-66
2023/03/14 11:11:25;;;;;;;5.20;2.60;;;5.50;99.90;;;;;;5033846;28;20421;-66
2023/03/14 11:14:02;;;;;;;5.80;2.43;;;5.70;99.90;;;;;;5034598;28;20936;-66
2023/03/14 11:17:08;;;;;;;6.50;2.43;;;5.60;99.90;;;;;;5033054;28;20503;-68
2023/03/14 11:19:57;;;;;;;6.57;2.90;;;5.60;99.90;;;;;;5034519;28;20406;-68
2023/03/14 11:22:43;;;;;;;2.70;2.50;;;5.40;99.90;;;;;;5033595;28;20439;-67
2023/03/14 11:25:24;;;;;;;7.40;2.77;;;5.50;99.90;;;;;;5034221;28;20906;-69
2023/03/14 11:27:52;;;;;;;11.63;2.93;;;5.50;99.90;;;;;;5034270;28;20493;-68
2023/03/14 11:30:34;;;;;;;5.17;2.20;;;5.70;99.90;;;;;;5032359;28;20744;-68
2023/03/14 11:33:08;;;;;;;6.63;2.67;;;5.90;99.90;;;;;;5034191;28;20410;-69
2023/03/14 11:36:00;;;;;;;6.77;2.07;;;6.10;99.90;;;;;;5034270;28;20437;-69
2023/03/14 11:38:33;;;;;;;6.50;2.33;;;6.00;99.90;;;;;;5034131;28;20533;-69
2023/03/14 11:40:59;;;;;;;5.40;3.07;;;6.00;99.90;;;;;;5032799;28;20394;-68
2023/03/14 11:43:30;;;;;;;6.80;2.53;;;6.10;99.90;;;;;;5033903;28;20461;-68
2023/03/14 11:46:23;;;;;;;5.80;2.63;;;6.30;99.90;;;;;;5033857;28;20423;-69
2023/03/14 11:48:56;;;;;;;3.30;2.60;;;6.30;78.40;;;;;;5023161;28;20807;-68
2023/03/14 11:51:35;;;;;;;6.37;2.77;;;6.30;15.00;;;;;;5032161;28;20936;-69
2023/03/14 11:54:18;;;;;;;8.83;2.90;;;6.40;1.00;;;;;;5033791;28;20410;-69
2023/03/14 11:56:53;;;;;;;10.23;4.10;;;6.40;1.00;;;;;;5033041;28;20406;-68
2023/03/14 11:59:29;;;;;;;4.93;2.97;;;6.50;1.00;;;;;;5033740;28;20418;-69
2023/03/14 12:01:54;;;;;;;6.37;2.67;;;6.50;1.00;;;;;;5031609;28;20865;-70
2023/03/14 12:04:53;;;;;;;4.03;2.40;;;6.40;1.00;;;;;;5033680;28;20450;-69
2023/03/14 12:07:23;;;;;;;7.53;3.03;;;6.30;1.00;;;;;;5000373;28;20184;-69
2023/03/14 12:09:52;;;;;;;5.13;2.30;;;6.20;1.00;;;;;;5033346;28;20434;-70
2023/03/14 12:12:22;;;;;;;7.83;2.50;;;6.20;1.00;;;;;;5032945;28;20418;-70
2023/03/14 12:14:59;;;;;;;6.47;2.27;;;6.30;1.00;;;;;;5032261;28;20418;-70
2023/03/14 12:17:35;;;;;;;5.93;2.77;;;6.30;1.00;;;;;;5032927;28;20405;-70
2023/03/14 12:20:09;;;;;;;5.30;2.47;;;6.40;1.00;;;;;;5033124;28;20929;-69
2023/03/14 12:22:42;;;;;;;9.50;2.50;;;6.30;1.00;;;;;;5033288;28;20425;-69
2023/03/14 12:25:11;;;;;;;5.50;4.67;;;6.50;1.00;;;;;;5033314;28;20454;-71
2023/03/14 12:27:46;;;;;;;2.70;2.13;;;6.50;1.00;;;;;;5033386;28;20956;-69
2023/03/14 12:30:35;;;;;;;2.93;2.70;;;6.50;99.90;;;;;;5032446;28;20405;-70
2023/03/14 12:33:10;;;;;;;5.37;2.27;;;6.40;99.90;;;;;;5033170;28;20572;-70
2023/03/14 12:35:49;;;;;;;7.67;3.60;;;6.20;99.90;;;;;;5033129;28;20924;-69
2023/03/14 12:38:36;;;;;;;18.63;3.57;;;6.20;1.00;;;;;;5032717;28;20449;-71
2023/03/14 12:41:17;;;;;;;12.13;3.40;;;6.30;1.00;;;;;;5032448;28;20398;-69
2023/03/14 12:43:43;;;;;;;6.53;2.57;;;6.20;1.00;;;;;;5033044;28;20563;-70
2023/03/14 12:46:09;;;;;;;9.70;3.20;;;6.10;1.00;;;;;;5033112;28;20488;-70
2023/03/14 12:48:34;;;;;;;5.80;2.40;;;6.00;1.00;;;;;;5033051;28;20802;-71
2023/03/14 12:51:11;;;;;;;5.13;3.63;;;5.90;1.00;;;;;;5032477;28;20403;-68
2023/03/14 12:53:37;;;;;;;14.60;3.23;;;5.90;1.00;;;;;;5032437;28;20175;-71
2023/03/14 12:56:10;;;;;;;11.87;2.83;;;5.90;1.00;;;;;;5031663;28;20606;-71
2023/03/14 12:58:58;;;;;;;8.80;3.93;;;6.10;1.00;;;;;;5033019;28;20274;-71
2023/03/14 13:01:24;;;;;;;7.63;3.00;;;6.20;1.00;;;;;;5032189;28;20418;-68